sensor_id;sensor_type;location;lat;lon;timestamp;temperature;humidity
17370;DHT22;8802;52.402;4.920;2023-06-14T00:00:46;22.80;77.10
17370;DHT22;8802;52.402;4.920;2023-06-14T00:03:14;22.70;76.80
17370;DHT22;8802;52.402;4.920;2023-06-14T00:05:43;22.70;76.10
17370;DHT22;8802;52.402;4.920;2023-06-14T00:08:12;22.70;76.10
17370;DHT22;8802;52.402;4.920;2023-06-14T00:10:39;22.70;75.60
17370;DHT22;8802;52.402;4.920;2023-06-14T00:13:09;22.60;75.30
17370;DHT22;8802;52.402;4.920;2023-06-14T00:15:37;22.60;74.80
17370;DHT22;8802;52.402;4.920;2023-06-14T00:18:04;22.60;74.60
17370;DHT22;8802;52.402;4.920;2023-06-14T00:20:32;22.60;74.50
17370;DHT22;8802;52.402;4.920;2023-06-14T00:22:59;22.60;74.20
17370;DHT22;8802;52.402;4.920;2023-06-14T00:25:27;22.60;74.10
17370;DHT22;8802;52.402;4.920;2023-06-14T00:27:54;22.60;73.60
17370;DHT22;8802;52.402;4.920;2023-06-14T00:30:23;22.50;73.50
17370;DHT22;8802;52.402;4.920;2023-06-14T00:32:50;22.50;73.40
17370;DHT22;8802;52.402;4.920;2023-06-14T00:35:17;22.50;73.40
17370;DHT22;8802;52.402;4.920;2023-06-14T00:37:44;22.50;72.90
17370;DHT22;8802;52.402;4.920;2023-06-14T00:40:11;22.50;72.60
17370;DHT22;8802;52.402;4.920;2023-06-14T00:42:38;22.40;72.60
17370;DHT22;8802;52.402;4.920;2023-06-14T00:45:06;22.40;72.40
17370;DHT22;8802;52.402;4.920;2023-06-14T00:47:35;22.40;72.50
17370;DHT22;8802;52.402;4.920;2023-06-14T00:50:06;22.40;72.60
17370;DHT22;8802;52.402;4.920;2023-06-14T00:52:33;22.40;72.60
17370;DHT22;8802;52.402;4.920;2023-06-14T00:55:01;22.30;72.40
17370;DHT22;8802;52.402;4.920;2023-06-14T00:57:28;22.30;72.30
17370;DHT22;8802;52.402;4.920;2023-06-14T00:59:56;22.30;73.10
17370;DHT22;8802;52.402;4.920;2023-06-14T01:02:23;22.30;72.20
17370;DHT22;8802;52.402;4.920;2023-06-14T01:04:52;22.20;71.90
17370;DHT22;8802;52.402;4.920;2023-06-14T01:07:28;22.20;71.80
17370;DHT22;8802;52.402;4.920;2023-06-14T01:12:58;22.10;71.40
17370;DHT22;8802;52.402;4.920;2023-06-14T01:15:30;22.10;71.40
17370;DHT22;8802;52.402;4.920;2023-06-14T01:17:58;22.10;71.30
17370;DHT22;8802;52.402;4.920;2023-06-14T01:20:32;22.10;71.10
17370;DHT22;8802;52.402;4.920;2023-06-14T01:23:03;22.00;71.00
17370;DHT22;8802;52.402;4.920;2023-06-14T01:25:30;22.00;71.10
17370;DHT22;8802;52.402;4.920;2023-06-14T01:27:59;22.00;71.00
17370;DHT22;8802;52.402;4.920;2023-06-14T01:30:28;21.90;70.90
17370;DHT22;8802;52.402;4.920;2023-06-14T01:32:56;21.90;70.40
17370;DHT22;8802;52.402;4.920;2023-06-14T01:35:24;21.90;70.20
17370;DHT22;8802;52.402;4.920;2023-06-14T01:37:52;21.90;70.00
17370;DHT22;8802;52.402;4.920;2023-06-14T01:40:21;21.80;70.30
17370;DHT22;8802;52.402;4.920;2023-06-14T01:42:50;21.80;70.00
17370;DHT22;8802;52.402;4.920;2023-06-14T01:45:18;21.80;69.80
17370;DHT22;8802;52.402;4.920;2023-06-14T01:47:47;21.80;70.00
17370;DHT22;8802;52.402;4.920;2023-06-14T01:50:14;21.80;70.00
17370;DHT22;8802;52.402;4.920;2023-06-14T01:52:41;21.70;69.80
17370;DHT22;8802;52.402;4.920;2023-06-14T01:55:08;21.70;69.90
17370;DHT22;8802;52.402;4.920;2023-06-14T01:57:36;21.70;69.70
17370;DHT22;8802;52.402;4.920;2023-06-14T02:00:04;21.60;69.80
17370;DHT22;8802;52.402;4.920;2023-06-14T02:02:36;21.60;69.50
17370;DHT22;8802;52.402;4.920;2023-06-14T02:05:03;21.60;69.50
17370;DHT22;8802;52.402;4.920;2023-06-14T02:07:30;21.60;70.00
17370;DHT22;8802;52.402;4.920;2023-06-14T02:09:57;21.60;70.60
17370;DHT22;8802;52.402;4.920;2023-06-14T02:12:24;21.60;70.60
17370;DHT22;8802;52.402;4.920;2023-06-14T02:14:52;21.50;69.80
17370;DHT22;8802;52.402;4.920;2023-06-14T02:17:19;21.50;70.20
17370;DHT22;8802;52.402;4.920;2023-06-14T02:19:46;21.50;70.40
17370;DHT22;8802;52.402;4.920;2023-06-14T02:22:14;21.50;70.80
17370;DHT22;8802;52.402;4.920;2023-06-14T02:24:41;21.50;70.90
17370;DHT22;8802;52.402;4.920;2023-06-14T02:27:09;21.40;71.20
17370;DHT22;8802;52.402;4.920;2023-06-14T02:29:36;21.40;71.20
17370;DHT22;8802;52.402;4.920;2023-06-14T02:32:05;21.40;71.40
17370;DHT22;8802;52.402;4.920;2023-06-14T02:34:33;21.40;71.40
17370;DHT22;8802;52.402;4.920;2023-06-14T02:37:00;21.30;71.60
17370;DHT22;8802;52.402;4.920;2023-06-14T02:39:28;21.30;71.70
17370;DHT22;8802;52.402;4.920;2023-06-14T02:41:55;21.20;71.60
17370;DHT22;8802;52.402;4.920;2023-06-14T02:44:24;21.20;71.30
17370;DHT22;8802;52.402;4.920;2023-06-14T02:46:52;21.20;71.20
17370;DHT22;8802;52.402;4.920;2023-06-14T02:49:21;21.20;71.20
17370;DHT22;8802;52.402;4.920;2023-06-14T02:51:48;21.10;71.00
17370;DHT22;8802;52.402;4.920;2023-06-14T02:54:15;21.10;71.10
17370;DHT22;8802;52.402;4.920;2023-06-14T02:56:42;21.10;71.30
17370;DHT22;8802;52.402;4.920;2023-06-14T02:59:09;21.10;72.10
17370;DHT22;8802;52.402;4.920;2023-06-14T03:01:36;21.00;71.50
17370;DHT22;8802;52.402;4.920;2023-06-14T03:04:06;21.00;71.40
17370;DHT22;8802;52.402;4.920;2023-06-14T03:06:35;21.00;71.60
17370;DHT22;8802;52.402;4.920;2023-06-14T03:09:02;21.00;71.70
17370;DHT22;8802;52.402;4.920;2023-06-14T03:11:31;21.00;71.80
17370;DHT22;8802;52.402;4.920;2023-06-14T03:13:59;20.90;72.00
17370;DHT22;8802;52.402;4.920;2023-06-14T03:16:29;20.90;72.10
17370;DHT22;8802;52.402;4.920;2023-06-14T03:18:57;20.90;72.60
17370;DHT22;8802;52.402;4.920;2023-06-14T03:21:23;20.90;72.40
17370;DHT22;8802;52.402;4.920;2023-06-14T03:23:52;20.90;72.40
17370;DHT22;8802;52.402;4.920;2023-06-14T03:26:20;20.80;72.60
17370;DHT22;8802;52.402;4.920;2023-06-14T03:28:48;20.80;72.50
17370;DHT22;8802;52.402;4.920;2023-06-14T03:31:15;20.80;72.60
17370;DHT22;8802;52.402;4.920;2023-06-14T03:33:42;20.70;72.30
17370;DHT22;8802;52.402;4.920;2023-06-14T03:36:09;20.70;72.60
17370;DHT22;8802;52.402;4.920;2023-06-14T03:38:36;20.70;72.60
17370;DHT22;8802;52.402;4.920;2023-06-14T03:41:04;20.70;72.70
17370;DHT22;8802;52.402;4.920;2023-06-14T03:43:31;20.60;72.70
17370;DHT22;8802;52.402;4.920;2023-06-14T03:45:58;20.60;73.10
17370;DHT22;8802;52.402;4.920;2023-06-14T03:48:26;20.60;73.00
17370;DHT22;8802;52.402;4.920;2023-06-14T03:50:52;20.60;73.00
17370;DHT22;8802;52.402;4.920;2023-06-14T03:53:20;20.50;72.90
17370;DHT22;8802;52.402;4.920;2023-06-14T03:55:48;20.60;72.90
17370;DHT22;8802;52.402;4.920;2023-06-14T03:58:19;20.60;72.80
17370;DHT22;8802;52.402;4.920;2023-06-14T04:00:46;20.50;73.00
17370;DHT22;8802;52.402;4.920;2023-06-14T04:03:13;20.50;73.30
17370;DHT22;8802;52.402;4.920;2023-06-14T04:05:41;20.50;73.30
17370;DHT22;8802;52.402;4.920;2023-06-14T04:08:08;20.50;73.30
17370;DHT22;8802;52.402;4.920;2023-06-14T04:10:35;20.40;73.30
17370;DHT22;8802;52.402;4.920;2023-06-14T04:13:02;20.40;73.60
17370;DHT22;8802;52.402;4.920;2023-06-14T04:15:31;20.40;74.30
17370;DHT22;8802;52.402;4.920;2023-06-14T04:17:59;20.40;73.30
17370;DHT22;8802;52.402;4.920;2023-06-14T04:20:26;20.40;73.70
17370;DHT22;8802;52.402;4.920;2023-06-14T04:22:53;20.40;73.60
17370;DHT22;8802;52.402;4.920;2023-06-14T04:25:22;20.40;73.60
17370;DHT22;8802;52.402;4.920;2023-06-14T04:27:51;20.40;73.80
17370;DHT22;8802;52.402;4.920;2023-06-14T04:30:19;20.40;73.70
17370;DHT22;8802;52.402;4.920;2023-06-14T04:32:48;20.40;73.70
17370;DHT22;8802;52.402;4.920;2023-06-14T04:35:19;20.40;73.60
17370;DHT22;8802;52.402;4.920;2023-06-14T04:37:46;20.50;73.90
17370;DHT22;8802;52.402;4.920;2023-06-14T04:40:13;20.50;74.00
17370;DHT22;8802;52.402;4.920;2023-06-14T04:42:39;20.40;74.70
17370;DHT22;8802;52.402;4.920;2023-06-14T04:45:10;20.50;73.70
17370;DHT22;8802;52.402;4.920;2023-06-14T04:47:38;20.50;73.90
17370;DHT22;8802;52.402;4.920;2023-06-14T04:50:08;20.40;74.00
17370;DHT22;8802;52.402;4.920;2023-06-14T04:52:35;20.40;74.10
17370;DHT22;8802;52.402;4.920;2023-06-14T04:55:02;20.50;74.10
17370;DHT22;8802;52.402;4.920;2023-06-14T04:57:30;20.40;73.80
17370;DHT22;8802;52.402;4.920;2023-06-14T04:59:57;20.40;74.00
17370;DHT22;8802;52.402;4.920;2023-06-14T05:02:26;20.40;74.30
17370;DHT22;8802;52.402;4.920;2023-06-14T05:04:56;20.40;74.50
17370;DHT22;8802;52.402;4.920;2023-06-14T05:07:24;20.40;74.60
17370;DHT22;8802;52.402;4.920;2023-06-14T05:09:51;20.40;74.60
17370;DHT22;8802;52.402;4.920;2023-06-14T05:12:18;20.40;74.60
17370;DHT22;8802;52.402;4.920;2023-06-14T05:14:46;20.40;74.60
17370;DHT22;8802;52.402;4.920;2023-06-14T05:17:12;20.40;74.60
17370;DHT22;8802;52.402;4.920;2023-06-14T05:19:39;20.40;74.60
17370;DHT22;8802;52.402;4.920;2023-06-14T05:22:06;20.40;74.60
17370;DHT22;8802;52.402;4.920;2023-06-14T05:24:34;20.40;74.40
17370;DHT22;8802;52.402;4.920;2023-06-14T05:27:01;20.40;74.40
17370;DHT22;8802;52.402;4.920;2023-06-14T05:29:28;20.40;74.20
17370;DHT22;8802;52.402;4.920;2023-06-14T05:31:55;20.40;74.40
17370;DHT22;8802;52.402;4.920;2023-06-14T05:34:22;20.40;74.60
17370;DHT22;8802;52.402;4.920;2023-06-14T05:36:49;20.40;74.40
17370;DHT22;8802;52.402;4.920;2023-06-14T05:39:16;20.40;75.60
17370;DHT22;8802;52.402;4.920;2023-06-14T05:41:44;20.40;74.60
17370;DHT22;8802;52.402;4.920;2023-06-14T05:44:11;20.40;74.60
17370;DHT22;8802;52.402;4.920;2023-06-14T05:46:38;20.40;74.40
17370;DHT22;8802;52.402;4.920;2023-06-14T05:49:05;20.40;75.00
17370;DHT22;8802;52.402;4.920;2023-06-14T05:51:32;20.50;74.70
17370;DHT22;8802;52.402;4.920;2023-06-14T05:53:59;20.40;74.40
17370;DHT22;8802;52.402;4.920;2023-06-14T05:56:26;20.50;74.60
17370;DHT22;8802;52.402;4.920;2023-06-14T05:58:54;20.50;74.70
17370;DHT22;8802;52.402;4.920;2023-06-14T06:01:21;20.50;74.50
17370;DHT22;8802;52.402;4.920;2023-06-14T06:03:48;20.50;74.60
17370;DHT22;8802;52.402;4.920;2023-06-14T06:06:15;20.60;74.60
17370;DHT22;8802;52.402;4.920;2023-06-14T06:08:42;20.60;74.40
17370;DHT22;8802;52.402;4.920;2023-06-14T06:11:10;20.70;74.40
17370;DHT22;8802;52.402;4.920;2023-06-14T06:13:37;20.70;74.40
17370;DHT22;8802;52.402;4.920;2023-06-14T06:16:06;20.70;74.50
17370;DHT22;8802;52.402;4.920;2023-06-14T06:18:33;20.80;74.30
17370;DHT22;8802;52.402;4.920;2023-06-14T06:21:00;20.90;73.90
17370;DHT22;8802;52.402;4.920;2023-06-14T06:23:28;20.90;73.80
17370;DHT22;8802;52.402;4.920;2023-06-14T06:25:55;21.00;73.90
17370;DHT22;8802;52.402;4.920;2023-06-14T06:28:22;21.10;73.90
17370;DHT22;8802;52.402;4.920;2023-06-14T06:30:49;21.20;74.10
17370;DHT22;8802;52.402;4.920;2023-06-14T06:33:17;21.30;75.00
17370;DHT22;8802;52.402;4.920;2023-06-14T06:35:44;21.40;73.80
17370;DHT22;8802;52.402;4.920;2023-06-14T06:38:11;21.50;73.90
17370;DHT22;8802;52.402;4.920;2023-06-14T06:40:38;21.60;73.90
17370;DHT22;8802;52.402;4.920;2023-06-14T06:43:05;21.60;73.80
17370;DHT22;8802;52.402;4.920;2023-06-14T06:45:32;21.70;73.40
17370;DHT22;8802;52.402;4.920;2023-06-14T06:47:58;21.80;73.30
17370;DHT22;8802;52.402;4.920;2023-06-14T06:50:27;21.90;73.40
17370;DHT22;8802;52.402;4.920;2023-06-14T06:52:54;22.00;73.00
17370;DHT22;8802;52.402;4.920;2023-06-14T06:55:21;22.10;72.70
17370;DHT22;8802;52.402;4.920;2023-06-14T06:57:47;22.20;72.40
17370;DHT22;8802;52.402;4.920;2023-06-14T07:00:16;22.20;72.00
17370;DHT22;8802;52.402;4.920;2023-06-14T07:02:43;22.30;71.90
17370;DHT22;8802;52.402;4.920;2023-06-14T07:05:10;22.40;71.30
17370;DHT22;8802;52.402;4.920;2023-06-14T07:07:38;22.50;70.80
17370;DHT22;8802;52.402;4.920;2023-06-14T07:10:06;22.60;70.80
17370;DHT22;8802;52.402;4.920;2023-06-14T07:12:33;22.60;70.60
17370;DHT22;8802;52.402;4.920;2023-06-14T07:15:05;22.70;70.00
17370;DHT22;8802;52.402;4.920;2023-06-14T07:17:33;22.80;69.50
17370;DHT22;8802;52.402;4.920;2023-06-14T07:20:00;22.90;69.50
17370;DHT22;8802;52.402;4.920;2023-06-14T07:22:31;22.90;69.50
17370;DHT22;8802;52.402;4.920;2023-06-14T07:24:59;23.10;69.40
17370;DHT22;8802;52.402;4.920;2023-06-14T07:27:26;23.10;69.50
17370;DHT22;8802;52.402;4.920;2023-06-14T07:29:53;23.20;69.10
17370;DHT22;8802;52.402;4.920;2023-06-14T07:32:19;23.30;68.80
17370;DHT22;8802;52.402;4.920;2023-06-14T07:34:46;23.40;69.00
17370;DHT22;8802;52.402;4.920;2023-06-14T07:37:13;23.50;69.00
17370;DHT22;8802;52.402;4.920;2023-06-14T07:39:40;23.60;68.10
17370;DHT22;8802;52.402;4.920;2023-06-14T07:42:09;23.70;68.50
17370;DHT22;8802;52.402;4.920;2023-06-14T07:44:35;23.80;68.00
17370;DHT22;8802;52.402;4.920;2023-06-14T07:47:03;23.90;67.40
17370;DHT22;8802;52.402;4.920;2023-06-14T07:49:30;23.90;67.00
17370;DHT22;8802;52.402;4.920;2023-06-14T07:51:57;24.00;66.10
17370;DHT22;8802;52.402;4.920;2023-06-14T07:54:24;24.10;65.50
17370;DHT22;8802;52.402;4.920;2023-06-14T07:56:52;24.10;65.20
17370;DHT22;8802;52.402;4.920;2023-06-14T07:59:20;24.20;65.80
17370;DHT22;8802;52.402;4.920;2023-06-14T08:01:47;24.30;65.40
17370;DHT22;8802;52.402;4.920;2023-06-14T08:04:14;24.40;65.30
17370;DHT22;8802;52.402;4.920;2023-06-14T08:06:41;24.40;64.50
17370;DHT22;8802;52.402;4.920;2023-06-14T08:09:11;24.50;65.00
17370;DHT22;8802;52.402;4.920;2023-06-14T08:11:39;24.60;64.00
17370;DHT22;8802;52.402;4.920;2023-06-14T08:14:06;24.60;64.80
17370;DHT22;8802;52.402;4.920;2023-06-14T08:16:34;24.70;63.20
17370;DHT22;8802;52.402;4.920;2023-06-14T08:19:01;24.80;62.50
17370;DHT22;8802;52.402;4.920;2023-06-14T08:21:28;24.80;63.20
17370;DHT22;8802;52.402;4.920;2023-06-14T08:23:55;24.90;63.00
17370;DHT22;8802;52.402;4.920;2023-06-14T08:26:22;25.00;62.70
17370;DHT22;8802;52.402;4.920;2023-06-14T08:28:49;25.00;61.90
17370;DHT22;8802;52.402;4.920;2023-06-14T08:31:16;25.10;62.40
17370;DHT22;8802;52.402;4.920;2023-06-14T08:33:44;25.20;62.40
17370;DHT22;8802;52.402;4.920;2023-06-14T08:36:11;25.30;63.00
17370;DHT22;8802;52.402;4.920;2023-06-14T08:38:38;25.30;61.90
17370;DHT22;8802;52.402;4.920;2023-06-14T08:41:06;25.40;61.00
17370;DHT22;8802;52.402;4.920;2023-06-14T08:43:33;25.50;60.30
17370;DHT22;8802;52.402;4.920;2023-06-14T08:46:02;25.60;60.00
17370;DHT22;8802;52.402;4.920;2023-06-14T08:48:30;25.60;59.70
17370;DHT22;8802;52.402;4.920;2023-06-14T08:51:00;25.70;59.60
17370;DHT22;8802;52.402;4.920;2023-06-14T08:53:30;25.70;59.30
17370;DHT22;8802;52.402;4.920;2023-06-14T08:56:00;25.90;59.20
17370;DHT22;8802;52.402;4.920;2023-06-14T08:58:27;25.90;58.40
17370;DHT22;8802;52.402;4.920;2023-06-14T09:00:57;26.00;58.30
17370;DHT22;8802;52.402;4.920;2023-06-14T09:03:24;26.10;57.90
17370;DHT22;8802;52.402;4.920;2023-06-14T09:05:55;26.20;58.30
17370;DHT22;8802;52.402;4.920;2023-06-14T09:08:25;26.30;58.10
17370;DHT22;8802;52.402;4.920;2023-06-14T09:10:56;26.40;56.90
17370;DHT22;8802;52.402;4.920;2023-06-14T09:13:23;26.40;56.60
17370;DHT22;8802;52.402;4.920;2023-06-14T09:15:50;26.50;56.90
17370;DHT22;8802;52.402;4.920;2023-06-14T09:18:17;26.60;56.60
17370;DHT22;8802;52.402;4.920;2023-06-14T09:20:45;26.70;56.70
17370;DHT22;8802;52.402;4.920;2023-06-14T09:23:13;26.70;56.40
17370;DHT22;8802;52.402;4.920;2023-06-14T09:25:46;26.80;56.40
17370;DHT22;8802;52.402;4.920;2023-06-14T09:28:13;26.90;56.00
17370;DHT22;8802;52.402;4.920;2023-06-14T09:30:39;27.00;56.40
17370;DHT22;8802;52.402;4.920;2023-06-14T09:33:07;27.10;56.10
17370;DHT22;8802;52.402;4.920;2023-06-14T09:35:34;27.20;55.00
17370;DHT22;8802;52.402;4.920;2023-06-14T09:38:01;27.30;53.80
17370;DHT22;8802;52.402;4.920;2023-06-14T09:40:28;27.40;53.70
17370;DHT22;8802;52.402;4.920;2023-06-14T09:42:57;27.40;53.60
17370;DHT22;8802;52.402;4.920;2023-06-14T09:45:25;27.50;53.70
17370;DHT22;8802;52.402;4.920;2023-06-14T09:47:55;27.60;54.20
17370;DHT22;8802;52.402;4.920;2023-06-14T09:50:22;27.70;54.30
17370;DHT22;8802;52.402;4.920;2023-06-14T09:52:52;27.90;53.80
17370;DHT22;8802;52.402;4.920;2023-06-14T09:55:21;28.00;53.10
17370;DHT22;8802;52.402;4.920;2023-06-14T09:57:50;28.10;53.00
17370;DHT22;8802;52.402;4.920;2023-06-14T10:00:20;28.30;53.60
17370;DHT22;8802;52.402;4.920;2023-06-14T10:02:53;28.40;51.40
17370;DHT22;8802;52.402;4.920;2023-06-14T10:05:21;28.50;51.60
17370;DHT22;8802;52.402;4.920;2023-06-14T10:07:53;28.60;51.90
17370;DHT22;8802;52.402;4.920;2023-06-14T10:10:22;28.70;52.10
17370;DHT22;8802;52.402;4.920;2023-06-14T10:12:49;28.80;51.40
17370;DHT22;8802;52.402;4.920;2023-06-14T10:15:22;28.90;51.00
17370;DHT22;8802;52.402;4.920;2023-06-14T10:17:55;29.00;51.10
17370;DHT22;8802;52.402;4.920;2023-06-14T10:20:28;29.20;51.00
17370;DHT22;8802;52.402;4.920;2023-06-14T10:23:02;29.40;50.70
17370;DHT22;8802;52.402;4.920;2023-06-14T10:25:31;29.50;50.80
17370;DHT22;8802;52.402;4.920;2023-06-14T10:31:05;29.70;50.00
17370;DHT22;8802;52.402;4.920;2023-06-14T10:33:33;29.80;50.50
17370;DHT22;8802;52.402;4.920;2023-06-14T10:36:27;30.00;50.50
17370;DHT22;8802;52.402;4.920;2023-06-14T10:39:06;30.10;49.50
17370;DHT22;8802;52.402;4.920;2023-06-14T10:41:35;30.20;49.10
17370;DHT22;8802;52.402;4.920;2023-06-14T10:44:33;30.30;48.70
17370;DHT22;8802;52.402;4.920;2023-06-14T10:47:01;30.40;48.30
17370;DHT22;8802;52.402;4.920;2023-06-14T10:49:43;30.50;48.30
17370;DHT22;8802;52.402;4.920;2023-06-14T10:52:12;30.50;47.40
17370;DHT22;8802;52.402;4.920;2023-06-14T10:55:01;30.60;47.00
17370;DHT22;8802;52.402;4.920;2023-06-14T10:57:29;30.60;47.60
17370;DHT22;8802;52.402;4.920;2023-06-14T10:59:58;30.60;48.00
17370;DHT22;8802;52.402;4.920;2023-06-14T11:02:50;30.70;47.40
17370;DHT22;8802;52.402;4.920;2023-06-14T11:05:24;30.80;47.40
17370;DHT22;8802;52.402;4.920;2023-06-14T11:08:04;30.90;46.80
17370;DHT22;8802;52.402;4.920;2023-06-14T11:10:38;30.90;46.40
17370;DHT22;8802;52.402;4.920;2023-06-14T11:13:06;31.10;47.30
17370;DHT22;8802;52.402;4.920;2023-06-14T11:15:34;31.20;47.10
17370;DHT22;8802;52.402;4.920;2023-06-14T11:18:05;31.00;46.90
17370;DHT22;8802;52.402;4.920;2023-06-14T11:20:33;31.20;47.40
17370;DHT22;8802;52.402;4.920;2023-06-14T11:23:01;31.30;47.50
17370;DHT22;8802;52.402;4.920;2023-06-14T11:25:28;31.40;47.70
17370;DHT22;8802;52.402;4.920;2023-06-14T11:27:55;31.50;47.80
17370;DHT22;8802;52.402;4.920;2023-06-14T11:30:23;31.50;47.50
17370;DHT22;8802;52.402;4.920;2023-06-14T11:32:52;31.50;47.50
17370;DHT22;8802;52.402;4.920;2023-06-14T11:35:23;31.60;46.80
17370;DHT22;8802;52.402;4.920;2023-06-14T11:37:53;31.60;45.90
17370;DHT22;8802;52.402;4.920;2023-06-14T11:40:23;31.60;45.90
17370;DHT22;8802;52.402;4.920;2023-06-14T11:42:58;31.60;45.10
17370;DHT22;8802;52.402;4.920;2023-06-14T11:45:25;31.60;45.60
17370;DHT22;8802;52.402;4.920;2023-06-14T11:47:55;31.60;45.10
17370;DHT22;8802;52.402;4.920;2023-06-14T11:50:25;31.60;44.80
17370;DHT22;8802;52.402;4.920;2023-06-14T11:52:53;31.50;44.70
17370;DHT22;8802;52.402;4.920;2023-06-14T11:55:20;31.50;44.80
17370;DHT22;8802;52.402;4.920;2023-06-14T11:57:48;31.50;45.20
17370;DHT22;8802;52.402;4.920;2023-06-14T12:00:15;31.50;45.40
17370;DHT22;8802;52.402;4.920;2023-06-14T12:02:51;31.50;45.40
17370;DHT22;8802;52.402;4.920;2023-06-14T12:05:20;31.60;45.50
17370;DHT22;8802;52.402;4.920;2023-06-14T12:07:49;31.60;45.30
17370;DHT22;8802;52.402;4.920;2023-06-14T12:10:16;31.70;45.00
17370;DHT22;8802;52.402;4.920;2023-06-14T12:12:43;31.80;44.90
17370;DHT22;8802;52.402;4.920;2023-06-14T12:15:11;31.80;44.60
17370;DHT22;8802;52.402;4.920;2023-06-14T12:17:39;31.80;44.30
17370;DHT22;8802;52.402;4.920;2023-06-14T12:20:09;31.70;44.10
17370;DHT22;8802;52.402;4.920;2023-06-14T12:22:46;31.70;44.60
17370;DHT22;8802;52.402;4.920;2023-06-14T12:25:29;31.60;43.90
17370;DHT22;8802;52.402;4.920;2023-06-14T12:27:58;31.60;43.80
17370;DHT22;8802;52.402;4.920;2023-06-14T12:30:25;31.50;44.50
17370;DHT22;8802;52.402;4.920;2023-06-14T12:32:52;31.40;43.90
17370;DHT22;8802;52.402;4.920;2023-06-14T12:35:19;31.30;44.40
17370;DHT22;8802;52.402;4.920;2023-06-14T12:37:46;31.30;44.60
17370;DHT22;8802;52.402;4.920;2023-06-14T12:40:13;31.20;45.30
17370;DHT22;8802;52.402;4.920;2023-06-14T12:42:42;31.10;44.60
17370;DHT22;8802;52.402;4.920;2023-06-14T12:45:09;31.00;44.70
17370;DHT22;8802;52.402;4.920;2023-06-14T12:47:36;30.90;45.10
17370;DHT22;8802;52.402;4.920;2023-06-14T12:50:04;30.90;44.90
17370;DHT22;8802;52.402;4.920;2023-06-14T12:52:31;30.80;45.10
17370;DHT22;8802;52.402;4.920;2023-06-14T12:55:01;30.70;44.90
17370;DHT22;8802;52.402;4.920;2023-06-14T12:57:28;30.60;44.80
17370;DHT22;8802;52.402;4.920;2023-06-14T12:59:57;30.60;45.10
17370;DHT22;8802;52.402;4.920;2023-06-14T13:02:24;30.60;45.70
17370;DHT22;8802;52.402;4.920;2023-06-14T13:04:51;30.60;45.20
17370;DHT22;8802;52.402;4.920;2023-06-14T13:07:18;30.50;45.50
17370;DHT22;8802;52.402;4.920;2023-06-14T13:09:45;30.40;45.20
17370;DHT22;8802;52.402;4.920;2023-06-14T13:12:12;30.30;45.10
17370;DHT22;8802;52.402;4.920;2023-06-14T13:14:39;30.20;45.30
17370;DHT22;8802;52.402;4.920;2023-06-14T13:17:09;30.20;45.50
17370;DHT22;8802;52.402;4.920;2023-06-14T13:19:36;30.10;44.90
17370;DHT22;8802;52.402;4.920;2023-06-14T13:22:03;30.00;45.80
17370;DHT22;8802;52.402;4.920;2023-06-14T13:24:30;30.00;44.80
17370;DHT22;8802;52.402;4.920;2023-06-14T13:26:57;29.90;45.20
17370;DHT22;8802;52.402;4.920;2023-06-14T13:29:25;29.80;45.10
17370;DHT22;8802;52.402;4.920;2023-06-14T13:31:52;29.80;45.20
17370;DHT22;8802;52.402;4.920;2023-06-14T13:34:20;29.70;45.20
17370;DHT22;8802;52.402;4.920;2023-06-14T13:36:48;29.60;45.20
17370;DHT22;8802;52.402;4.920;2023-06-14T13:39:15;29.50;45.60
17370;DHT22;8802;52.402;4.920;2023-06-14T13:41:42;29.40;44.80
17370;DHT22;8802;52.402;4.920;2023-06-14T13:44:09;29.30;45.00
17370;DHT22;8802;52.402;4.920;2023-06-14T13:46:39;29.20;45.10
17370;DHT22;8802;52.402;4.920;2023-06-14T13:49:08;29.10;45.00
17370;DHT22;8802;52.402;4.920;2023-06-14T13:51:37;29.10;45.50
17370;DHT22;8802;52.402;4.920;2023-06-14T13:54:04;29.00;45.80
17370;DHT22;8802;52.402;4.920;2023-06-14T13:56:31;28.90;46.10
17370;DHT22;8802;52.402;4.920;2023-06-14T13:58:58;28.80;45.90
17370;DHT22;8802;52.402;4.920;2023-06-14T14:01:26;28.80;46.00
17370;DHT22;8802;52.402;4.920;2023-06-14T14:03:54;28.70;46.20
17370;DHT22;8802;52.402;4.920;2023-06-14T14:06:21;28.60;46.30
17370;DHT22;8802;52.402;4.920;2023-06-14T14:08:50;28.60;46.70
17370;DHT22;8802;52.402;4.920;2023-06-14T14:11:18;28.50;47.20
17370;DHT22;8802;52.402;4.920;2023-06-14T14:13:46;28.50;46.60
17370;DHT22;8802;52.402;4.920;2023-06-14T14:16:13;28.50;46.50
17370;DHT22;8802;52.402;4.920;2023-06-14T14:18:40;28.40;46.30
17370;DHT22;8802;52.402;4.920;2023-06-14T14:21:07;28.40;46.30
17370;DHT22;8802;52.402;4.920;2023-06-14T14:23:35;28.30;46.50
17370;DHT22;8802;52.402;4.920;2023-06-14T14:26:03;28.30;47.10
17370;DHT22;8802;52.402;4.920;2023-06-14T14:28:30;28.20;47.10
17370;DHT22;8802;52.402;4.920;2023-06-14T14:30:58;28.20;46.90
17370;DHT22;8802;52.402;4.920;2023-06-14T14:33:25;28.10;47.20
17370;DHT22;8802;52.402;4.920;2023-06-14T14:35:52;28.10;47.50
17370;DHT22;8802;52.402;4.920;2023-06-14T14:38:18;28.10;47.50
17370;DHT22;8802;52.402;4.920;2023-06-14T14:40:45;28.10;47.00
17370;DHT22;8802;52.402;4.920;2023-06-14T14:43:14;28.10;47.50
17370;DHT22;8802;52.402;4.920;2023-06-14T14:45:40;28.00;47.70
17370;DHT22;8802;52.402;4.920;2023-06-14T14:48:07;28.00;47.20
17370;DHT22;8802;52.402;4.920;2023-06-14T14:50:34;28.00;47.30
17370;DHT22;8802;52.402;4.920;2023-06-14T14:53:01;28.00;47.40
17370;DHT22;8802;52.402;4.920;2023-06-14T14:55:28;27.90;47.30
17370;DHT22;8802;52.402;4.920;2023-06-14T14:57:56;27.90;47.40
17370;DHT22;8802;52.402;4.920;2023-06-14T15:00:24;27.90;47.50
17370;DHT22;8802;52.402;4.920;2023-06-14T15:02:51;27.80;47.40
17370;DHT22;8802;52.402;4.920;2023-06-14T15:05:18;27.80;47.10
17370;DHT22;8802;52.402;4.920;2023-06-14T15:07:45;27.80;47.50
17370;DHT22;8802;52.402;4.920;2023-06-14T15:10:12;27.70;47.60
17370;DHT22;8802;52.402;4.920;2023-06-14T15:12:39;27.70;47.80
17370;DHT22;8802;52.402;4.920;2023-06-14T15:15:06;27.70;48.00
17370;DHT22;8802;52.402;4.920;2023-06-14T15:17:36;27.70;47.70
17370;DHT22;8802;52.402;4.920;2023-06-14T15:20:03;27.70;47.80
17370;DHT22;8802;52.402;4.920;2023-06-14T15:22:31;27.60;48.00
17370;DHT22;8802;52.402;4.920;2023-06-14T15:24:58;27.60;48.20
17370;DHT22;8802;52.402;4.920;2023-06-14T15:27:25;27.60;48.40
17370;DHT22;8802;52.402;4.920;2023-06-14T15:29:53;27.60;48.00
17370;DHT22;8802;52.402;4.920;2023-06-14T15:32:20;27.60;47.70
17370;DHT22;8802;52.402;4.920;2023-06-14T15:34:48;27.60;48.40
17370;DHT22;8802;52.402;4.920;2023-06-14T15:37:15;27.60;48.20
17370;DHT22;8802;52.402;4.920;2023-06-14T15:39:42;27.60;48.30
17370;DHT22;8802;52.402;4.920;2023-06-14T15:42:09;27.60;48.70
17370;DHT22;8802;52.402;4.920;2023-06-14T15:44:37;27.60;49.40
17370;DHT22;8802;52.402;4.920;2023-06-14T15:47:04;27.60;48.50
17370;DHT22;8802;52.402;4.920;2023-06-14T15:49:32;27.60;49.10
17370;DHT22;8802;52.402;4.920;2023-06-14T15:52:01;27.60;49.00
17370;DHT22;8802;52.402;4.920;2023-06-14T15:54:27;27.60;48.80
17370;DHT22;8802;52.402;4.920;2023-06-14T15:56:54;27.60;49.00